Time;durP1;ratioP1;P1;durP2;ratioP2;P2;SDS_P1;SDS_P2;PMS_P1;PMS_P2;Temp;Humidity;BMP_temperature;BMP_pressure;BME280_temperature;BME280_humidity;BME280_pressure;Samples;Min_cycle;Max_cycle;Signal;HPM_P1;HPM_P2
2021/07/04 00:04:50;;;;;;;7.75;7.25;;;;;;;16.31;64.71;99770.28;10502414;28;20052;-68
2021/07/04 00:09:51;;;;;;;7.13;6.72;;;;;;;16.43;64.87;99776.66;10502151;28;20495;-69
2021/07/04 00:14:53;;;;;;;8.20;7.70;;;;;;;16.15;66.00;99783.59;10502132;28;20044;-69
2021/07/04 00:19:54;;;;;;;8.07;7.63;;;;;;;16.06;67.03;99777.03;10501310;28;20055;-69
2021/07/04 00:24:56;;;;;;;9.02;8.43;;;;;;;15.95;67.82;99781.25;10500904;28;20487;-69
2021/07/04 00:29:57;;;;;;;9.23;8.63;;;;;;;16.01;67.65;99780.91;10500866;28;20086;-69
2021/07/04 00:34:59;;;;;;;8.55;8.05;;;;;;;16.00;67.88;99777.41;10501235;28;20052;-69
2021/07/04 00:40:03;;;;;;;9.02;8.45;;;;;;;15.89;67.97;99766.53;10501078;28;20044;-70
2021/07/04 00:45:11;;;;;;;7.88;7.38;;;;;;;15.89;67.36;99761.25;10501157;28;20041;-70
2021/07/04 00:50:16;;;;;;;8.57;7.97;;;;;;;15.84;67.60;99766.81;10500332;28;20048;-69
2021/07/04 00:55:17;;;;;;;8.00;7.40;;;;;;;15.72;68.25;99764.03;10499125;28;20076;-70
2021/07/04 01:00:27;;;;;;;9.23;8.63;;;;;;;15.90;67.46;99762.97;10499999;28;20045;-70
2021/07/04 01:05:33;;;;;;;8.38;7.88;;;;;;;15.88;66.92;99764.84;10500893;28;20072;-69
2021/07/04 01:10:36;;;;;;;8.30;7.70;;;;;;;15.99;66.70;99765.09;10500737;28;20060;-69
2021/07/04 01:15:43;;;;;;;8.95;8.45;;;;;;;15.89;66.64;99762.13;10481729;28;20051;-69
2021/07/04 01:20:45;;;;;;;8.75;8.23;;;;;;;15.44;68.34;99765.53;10499505;28;20124;-69
2021/07/04 01:25:52;;;;;;;9.98;9.27;;;;;;;15.20;69.80;99761.63;10482802;28;20051;-69
2021/07/04 01:30:59;;;;;;;8.90;8.40;;;;;;;15.61;68.01;99759.31;10499113;28;20029;-70
2021/07/04 01:36:06;;;;;;;8.25;7.65;;;;;;;15.50;67.80;99759.91;10480759;28;20127;-70
2021/07/04 01:41:10;;;;;;;8.02;7.53;;;;;;;15.56;67.91;99762.22;10499401;28;20123;-70
2021/07/04 01:46:13;;;;;;;8.10;7.50;;;;;;;15.53;68.30;99759.72;10480597;28;20036;-70
2021/07/04 01:51:17;;;;;;;8.32;7.82;;;;;;;15.20;69.26;99762.47;10500263;28;20040;-70
2021/07/04 01:56:19;;;;;;;7.72;7.28;;;;;;;15.40;68.63;99758.72;10481407;28;20101;-71
2021/07/04 02:01:23;;;;;;;8.20;7.70;;;;;;;15.46;68.19;99749.59;10480063;28;20048;-70
2021/07/04 02:06:25;;;;;;;7.70;7.18;;;;;;;15.13;69.36;99753.16;10484901;28;20044;-70
2021/07/04 02:11:27;;;;;;;7.70;6.97;;;;;;;15.29;68.83;99751.38;10506717;28;20102;-71
2021/07/04 02:16:34;;;;;;;9.52;8.80;;;;;;;15.18;69.02;99760.84;10488507;28;20078;-70
2021/07/04 02:21:48;;;;;;;8.43;7.93;;;;;;;14.92;70.55;99765.78;10488146;28;20417;-70
2021/07/04 02:27:15;;;;;;;7.47;7.07;;;;;;;14.98;70.07;99760.16;10488319;28;20048;-70
2021/07/04 02:32:25;;;;;;;7.72;7.32;;;;;;;15.20;68.86;99767.78;10488550;28;20048;-69
2021/07/04 02:37:32;;;;;;;;;;;;;;;15.32;68.23;99763.59;10507339;28;20048;-69
2021/07/04 02:42:44;;;;;;;8.20;7.70;;;;;;;15.11;69.01;99762.97;10489005;28;19921;-70
2021/07/04 02:47:47;;;;;;;8.07;7.63;;;;;;;14.96;69.64;99761.16;10506977;28;20555;-71
2021/07/04 02:52:53;;;;;;;8.52;8.00;;;;;;;14.80;70.42;99766.44;10487916;28;20072;-71
2021/07/04 02:57:55;;;;;;;8.82;8.32;;;;;;;14.95;69.23;99770.03;10487682;28;20150;-70
2021/07/04 03:02:57;;;;;;;8.40;7.80;;;;;;;14.88;69.24;99766.88;10504779;28;20051;-69
2021/07/04 03:07:59;;;;;;;7.57;7.00;;;;;;;15.07;68.22;99767.59;10504436;28;20082;-70
2021/07/04 03:13:02;;;;;;;7.60;7.10;;;;;;;15.19;67.39;99759.94;10503822;28;20036;-70
2021/07/04 03:18:08;;;;;;;7.35;6.65;;;;;;;15.11;67.56;99769.13;10485575;28;20437;-69
2021/07/04 03:23:13;;;;;;;8.80;8.30;;;;;;;14.78;69.59;99771.78;10485989;28;20536;-69
2021/07/04 03:28:18;;;;;;;8.93;7.97;;;;;;;14.56;70.15;99765.91;10485192;28;20389;-69
2021/07/04 03:33:21;;;;;;;7.43;6.93;;;;;;;14.58;70.36;99777.28;10503722;28;20087;-70
2021/07/04 03:38:23;;;;;;;7.97;7.47;;;;;;;14.57;70.62;99773.81;10502593;28;20040;-70
2021/07/04 03:43:25;;;;;;;8.40;7.82;;;;;;;14.57;70.63;99768.50;10486954;28;20067;-71
2021/07/04 03:48:28;;;;;;;8.02;7.55;;;;;;;14.75;70.64;99771.97;10485344;28;20043;-71
2021/07/04 03:53:42;;;;;;;7.88;7.32;;;;;;;14.91;70.17;99771.13;10486339;28;20055;-72
2021/07/04 03:58:44;;;;;;;7.28;6.80;;;;;;;15.19;68.22;99766.06;10502916;28;20043;-72
2021/07/04 04:03:47;;;;;;;7.95;7.38;;;;;;;15.24;68.33;99764.03;10485418;28;20059;-71
2021/07/04 04:08:49;;;;;;;6.97;6.57;;;;;;;15.60;66.65;99754.94;10484375;28;20529;-72
2021/07/04 04:13:59;;;;;;;6.75;6.13;;;;;;;15.56;67.39;99756.91;10484150;28;20044;-72
2021/07/04 04:19:01;;;;;;;6.90;6.40;;;;;;;15.74;66.43;99756.84;10483759;28;20048;-70
2021/07/04 04:24:04;;;;;;;5.63;5.22;;;;;;;15.88;65.76;99756.88;10501674;28;20402;-70
2021/07/04 04:29:05;;;;;;;5.82;5.32;;;;;;;15.89;65.15;99756.81;10501619;28;20061;-72
2021/07/04 04:34:10;;;;;;;6.00;5.50;;;;;;;15.96;66.08;99762.59;10485411;28;20139;-71
2021/07/04 04:39:12;;;;;;;6.53;5.93;;;;;;;15.89;65.41;99762.13;10500839;28;20045;-70
2021/07/04 04:44:14;;;;;;;5.60;5.20;;;;;;;16.06;64.95;99765.56;10501642;28;20045;-70
2021/07/04 04:49:15;;;;;;;6.25;5.75;;;;;;;16.30;65.21;99773.91;10500623;28;20044;-70
2021/07/04 04:54:17;;;;;;;5.82;5.40;;;;;;;16.32;64.00;99772.00;10501046;28;20501;-70
2021/07/04 04:59:18;;;;;;;6.45;5.95;;;;;;;16.11;65.57;99776.75;10499512;28;20483;-70
2021/07/04 05:04:20;;;;;;;7.40;6.90;;;;;;;16.37;63.33;99773.41;10500238;28;20072;-71
2021/07/04 05:09:22;;;;;;;6.70;6.28;;;;;;;16.05;66.32;99772.66;10481543;28;20059;-71
2021/07/04 05:14:24;;;;;;;7.60;7.00;;;;;;;15.99;66.25;99769.53;10500188;28;20045;-70
2021/07/04 05:19:25;;;;;;;6.85;6.22;;;;;;;16.29;65.85;99758.91;10498485;28;20419;-71
2021/07/04 05:24:27;;;;;;;7.13;6.72;;;;;;;16.74;63.51;99765.09;10481227;28;20061;-70
2021/07/04 05:29:28;;;;;;;6.57;6.07;;;;;;;16.91;63.64;99762.25;10499169;28;20119;-70
2021/07/04 05:34:31;;;;;;;5.82;5.50;;;;;;;17.28;62.83;99762.56;10482476;28;20048;-70
2021/07/04 05:39:32;;;;;;;5.18;4.78;;;;;;;17.40;60.82;99767.09;10499588;28;20041;-70
2021/07/04 05:44:34;;;;;;;5.65;5.18;;;;;;;18.42;58.12;99754.16;10509120;28;20436;-71
2021/07/04 05:49:36;;;;;;;4.50;4.20;;;;;;;18.24;57.06;99753.59;10489163;28;20040;-71
2021/07/04 05:54:38;;;;;;;5.35;3.92;;;;;;;18.40;57.35;99746.25;10507937;28;20127;-71
2021/07/04 05:59:39;;;;;;;4.50;4.07;;;;;;;18.80;55.94;99743.50;10506958;28;20037;-71
2021/07/04 06:04:41;;;;;;;5.20;4.38;;;;;;;19.10;56.62;99743.16;10506985;28;20052;-71
2021/07/04 06:09:42;;;;;;;4.75;4.22;;;;;;;19.54;55.11;99741.72;10506921;28;20045;-71
2021/07/04 06:14:44;;;;;;;4.03;3.72;;;;;;;20.28;54.21;99728.25;10506370;28;20052;-70
2021/07/04 06:19:45;;;;;;;4.55;4.13;;;;;;;20.80;53.37;99729.53;10488309;28;20074;-72
2021/07/04 06:24:47;;;;;;;4.15;3.80;;;;;;;20.78;52.49;99731.47;10506233;28;20052;-71
2021/07/04 06:29:49;;;;;;;4.47;4.13;;;;;;;21.17;51.31;99720.28;10506239;28;20036;-71
2021/07/04 06:34:50;;;;;;;4.10;3.80;;;;;;;21.79;50.14;99718.81;10505449;28;20481;-72
2021/07/04 06:39:52;;;;;;;4.05;3.72;;;;;;;22.10;49.47;99718.91;10505896;28;20044;-71
2021/07/04 06:44:53;;;;;;;4.40;4.07;;;;;;;22.35;49.19;99706.97;10504550;28;20056;-71
2021/07/04 06:49:55;;;;;;;4.50;3.97;;;;;;;22.62;48.37;99703.72;10504411;28;20048;-70
2021/07/04 06:54:57;;;;;;;4.03;3.15;;;;;;;22.53;49.46;99704.53;10503221;28;20066;-71
2021/07/04 07:00:07;;;;;;;3.85;3.45;;;;;;;23.11;48.12;99702.16;10503929;28;20040;-71
2021/07/04 07:05:11;;;;;;;4.55;3.03;;;;;;;23.79;47.52;99704.94;10486972;28;20044;-70
2021/07/04 07:10:13;;;;;;;3.75;3.42;;;;;;;24.15;47.94;99698.84;10504270;28;20109;-70
2021/07/04 07:15:21;;;;;;;4.65;3.28;;;;;;;23.84;46.58;99705.38;10485638;28;20076;-71
2021/07/04 07:20:24;;;;;;;3.75;3.42;;;;;;;24.15;46.46;99701.53;10504891;28;20071;-71
2021/07/04 07:25:26;;;;;;;3.55;3.22;;;;;;;24.46;45.92;99695.97;10484955;28;20040;-71
2021/07/04 07:30:30;;;;;;;3.13;2.92;;;;;;;24.63;45.81;99694.38;10485668;28;20041;-71
2021/07/04 07:35:32;;;;;;;2.95;2.75;;;;;;;25.02;44.91;99684.31;10485964;28;20044;-71
2021/07/04 07:40:35;;;;;;;3.85;2.97;;;;;;;24.99;46.55;99681.06;10486040;28;20111;-70
2021/07/04 07:45:39;;;;;;;4.00;3.70;;;;;;;25.00;45.42;99672.00;10502070;28;20055;-70
2021/07/04 07:50:44;;;;;;;2.95;2.75;;;;;;;24.95;45.96;99672.44;10485080;28;20041;-70
2021/07/04 07:55:46;;;;;;;3.85;3.35;;;;;;;25.54;45.71;99665.69;10503224;28;20102;-72
2021/07/04 08:00:48;;;;;;;3.78;2.78;;;;;;;25.75;44.79;99664.56;10503543;28;20041;-71
2021/07/04 08:05:49;;;;;;;2.63;2.50;;;;;;;25.66;44.45;99656.41;10502094;28;20045;-70
2021/07/04 08:10:51;;;;;;;3.13;2.58;;;;;;;25.83;44.21;99648.50;10503134;28;20036;-71
2021/07/04 08:15:54;;;;;;;3.17;2.67;;;;;;;25.99;42.38;99647.81;10502514;28;20123;-71
2021/07/04 08:20:55;;;;;;;2.22;2.03;;;;;;;25.85;42.51;99643.78;10502110;28;20094;-70
2021/07/04 08:25:57;;;;;;;2.58;2.38;;;;;;;26.12;39.39;99630.22;10483781;28;20102;-71
2021/07/04 08:30:59;;;;;;;3.17;2.22;;;;;;;26.26;40.12;99636.88;10500559;28;20040;-72
2021/07/04 08:36:01;;;;;;;2.47;2.13;;;;;;;26.75;37.67;99628.22;10501217;28;20473;-71
2021/07/04 08:41:03;;;;;;;2.30;2.10;;;;;;;26.67;39.98;99621.78;10500556;28;20045;-71
2021/07/04 08:46:05;;;;;;;2.65;1.90;;;;;;;27.00;37.47;99615.66;10501198;28;20040;-71
2021/07/04 08:51:08;;;;;;;2.25;2.10;;;;;;;27.55;36.18;99605.16;10500207;28;20513;-71
2021/07/04 08:56:10;;;;;;;2.17;1.98;;;;;;;27.96;35.57;99609.72;10500942;28;20040;-71
2021/07/04 09:01:17;;;;;;;2.00;1.90;;;;;;;28.33;34.67;99606.41;10482862;28;20040;-71
2021/07/04 09:06:43;;;;;;;1.55;1.45;;;;;;;28.58;34.18;99597.25;10499066;28;20041;-71
2021/07/04 09:11:54;;;;;;;1.70;1.60;;;;;;;28.71;34.80;99595.84;10492288;28;20057;-71
2021/07/04 09:16:56;;;;;;;1.60;1.50;;;;;;;27.94;31.66;99598.25;10481441;28;20418;-70
2021/07/04 09:22:06;;;;;;;1.80;1.70;;;;;;;28.71;32.43;99588.56;10499001;28;20449;-71
2021/07/04 09:27:11;;;;;;;2.13;1.67;;;;;;;29.09;31.45;99589.59;10498351;28;20406;-71
2021/07/04 09:32:17;;;;;;;1.50;1.40;;;;;;;29.76;30.18;99585.38;10497361;28;20561;-71
2021/07/04 09:37:29;;;;;;;1.70;1.60;;;;;;;30.21;28.95;99579.03;10497443;28;20049;-71
2021/07/04 09:42:30;;;;;;;1.77;1.67;;;;;;;29.80;31.95;99575.88;10498866;28;20110;-69
2021/07/04 09:47:32;;;;;;;1.60;1.50;;;;;;;29.79;31.27;99574.16;10479953;28;20044;-70
2021/07/04 09:52:34;;;;;;;1.90;1.80;;;;;;;29.67;30.21;99572.94;10498375;28;20040;-70
2021/07/04 09:57:55;;;;;;;2.05;1.95;;;;;;;28.96;30.57;99570.38;10497849;28;20080;-70
2021/07/04 10:03:19;;;;;;;2.10;1.80;;;;;;;29.30;30.08;99564.56;10497666;28;20045;-70
2021/07/04 10:08:26;;;;;;;1.73;1.63;;;;;;;29.12;31.47;99559.44;10497116;28;20439;-70
2021/07/04 10:13:29;;;;;;;2.13;1.90;;;;;;;29.79;31.09;99549.78;10479562;28;20052;-70
2021/07/04 10:18:32;;;;;;;1.92;1.83;;;;;;;29.71;31.25;99539.88;10497106;28;20102;-70
2021/07/04 10:23:34;;;;;;;2.10;1.90;;;;;;;29.81;29.54;99539.63;10497895;28;20118;-70
2021/07/04 10:28:38;;;;;;;1.98;1.88;;;;;;;29.38;30.35;99532.00;10502042;28;20086;-70
2021/07/04 10:33:41;;;;;;;2.72;1.95;;;;;;;29.79;31.21;99538.94;10504606;28;20041;-70
2021/07/04 10:39:00;;;;;;;1.75;1.50;;;;;;;29.99;31.78;99515.69;10503803;28;20044;-70
2021/07/04 10:44:12;;;;;;;1.75;1.63;;;;;;;29.85;29.30;99522.81;10486305;28;20044;-70
2021/07/04 10:49:20;;;;;;;2.55;1.70;;;;;;;29.59;30.90;99508.84;10504383;28;20560;-69
2021/07/04 10:54:40;;;;;;;2.00;1.90;;;;;;;28.39;32.64;99512.00;10503998;28;20048;-70
2021/07/04 11:00:03;;;;;;;1.85;1.75;;;;;;;27.86;32.19;99513.50;10503672;28;20487;-70
2021/07/04 11:05:31;;;;;;;1.92;1.83;;;;;;;28.82;31.64;99504.34;10503350;28;20049;-70
2021/07/04 11:10:50;;;;;;;1.92;1.83;;;;;;;29.24;29.43;99494.06;10495318;28;20056;-70
2021/07/04 11:16:09;;;;;;;2.22;2.08;;;;;;;29.20;30.53;99498.16;10503032;28;20040;-69
2021/07/04 11:21:50;;;;;;;1.80;1.70;;;;;;;28.82;30.65;99492.66;10502758;28;20566;-70
2021/07/04 11:27:16;;;;;;;1.88;1.75;;;;;;;28.69;30.29;99476.16;10503002;28;20092;-70
2021/07/04 11:32:21;;;;;;;2.28;1.90;;;;;;;29.37;30.37;99473.47;10503622;28;20040;-70
2021/07/04 11:37:35;;;;;;;;;;;;;;;29.39;29.89;99479.53;10501822;28;20079;-70
2021/07/04 11:42:37;;;;;;;1.70;1.60;;;;;;;29.65;30.87;99472.88;10484367;28;19956;-70
2021/07/04 11:47:54;;;;;;;1.95;1.83;;;;;;;29.81;31.08;99464.59;10502280;28;20052;-71
2021/07/04 11:53:06;;;;;;;1.95;1.83;;;;;;;30.19;31.22;99452.81;10503091;28;20040;-70
2021/07/04 11:58:07;;;;;;;1.73;1.63;;;;;;;30.66;31.84;99444.19;10502409;28;20460;-70
2021/07/04 12:03:09;;;;;;;2.45;2.25;;;;;;;30.15;28.41;99442.38;10502584;28;20041;-71
2021/07/04 12:08:11;;;;;;;1.80;1.70;;;;;;;29.75;33.08;99431.97;10501887;28;20504;-70
2021/07/04 12:13:13;;;;;;;2.03;1.83;;;;;;;29.96;29.17;99428.50;10503277;28;20127;-71
2021/07/04 12:18:16;;;;;;;1.77;1.67;;;;;;;30.36;31.58;99419.03;10501963;28;20090;-70
2021/07/04 12:23:18;;;;;;;1.95;1.77;;;;;;;29.64;31.91;99409.75;10503199;28;20040;-71
2021/07/04 12:28:21;;;;;;;1.73;1.63;;;;;;;29.80;30.94;99407.91;10501371;28;20098;-71
2021/07/04 12:33:27;;;;;;;2.20;2.08;;;;;;;30.38;29.29;99400.72;10501917;28;20490;-71
2021/07/04 12:38:37;;;;;;;2.00;1.60;;;;;;;30.30;28.74;99392.69;10501540;28;20076;-71
2021/07/04 12:43:46;;;;;;;3.65;1.67;;;;;;;30.03;30.60;99397.78;10483163;28;20094;-70
2021/07/04 12:48:51;;;;;;;2.15;1.80;;;;;;;30.03;29.82;99386.09;10501315;28;20063;-71
2021/07/04 12:53:53;;;;;;;1.90;1.80;;;;;;;30.12;29.89;99387.66;10483215;28;20102;-69
2021/07/04 12:59:05;;;;;;;1.90;1.80;;;;;;;30.05;28.38;99382.16;10500933;28;20398;-71
2021/07/04 13:04:09;;;;;;;1.90;1.80;;;;;;;29.90;31.31;99368.63;10483237;28;20123;-70
2021/07/04 13:09:22;;;;;;;1.63;1.52;;;;;;;29.91;29.75;99372.19;10500885;28;20473;-70
2021/07/04 13:14:39;;;;;;;1.55;1.45;;;;;;;30.48;29.60;99348.88;10500533;28;20044;-71
2021/07/04 13:19:41;;;;;;;1.50;1.40;;;;;;;29.98;28.55;99356.84;10499874;28;20090;-70
2021/07/04 13:24:49;;;;;;;1.63;1.52;;;;;;;30.35;29.91;99357.72;10500459;28;20392;-71
2021/07/04 13:29:55;;;;;;;1.92;1.80;;;;;;;29.52;31.18;99358.91;10500335;28;20038;-72
2021/07/04 13:34:56;;;;;;;1.70;1.60;;;;;;;29.54;31.47;99357.72;10499392;28;20114;-70
2021/07/04 13:40:16;;;;;;;1.80;1.70;;;;;;;30.42;28.51;99352.38;10499592;28;20410;-71
2021/07/04 13:45:38;;;;;;;1.67;1.58;;;;;;;30.28;32.56;99346.81;10500231;28;20102;-70
2021/07/04 13:50:42;;;;;;;1.65;1.55;;;;;;;30.54;30.41;99343.50;10500127;28;20032;-72
2021/07/04 13:55:46;;;;;;;1.65;1.55;;;;;;;30.12;29.69;99347.84;10500154;28;20410;-68
2021/07/04 14:00:51;;;;;;;1.88;1.73;;;;;;;29.84;29.23;99344.19;10500721;28;20074;-72
2021/07/04 14:05:53;;;;;;;;;;;;;;;29.75;29.28;99339.88;10508458;28;20044;-71
2021/07/04 14:10:54;;;;;;;2.00;1.70;;;;;;;30.38;28.41;99341.06;10507506;28;19982;-69
2021/07/04 14:15:56;;;;;;;2.08;1.90;;;;;;;30.07;29.23;99336.75;10506376;28;20102;-70
2021/07/04 14:20:57;;;;;;;1.70;1.60;;;;;;;29.94;29.51;99336.59;10504748;28;20048;-69
2021/07/04 14:26:01;;;;;;;1.80;1.70;;;;;;;29.82;32.66;99335.41;10505441;28;20052;-69
2021/07/04 14:31:03;;;;;;;1.77;1.67;;;;;;;29.80;28.30;99332.88;10505116;28;20048;-69
2021/07/04 14:36:04;;;;;;;1.83;1.73;;;;;;;30.17;29.87;99328.31;10505877;28;20053;-69
2021/07/04 14:41:06;;;;;;;1.60;1.50;;;;;;;29.99;29.75;99317.88;10505481;28;20045;-69
2021/07/04 14:46:08;;;;;;;2.65;1.70;;;;;;;30.03;28.90;99319.19;10505360;28;20576;-70
2021/07/04 14:51:10;;;;;;;1.67;1.58;;;;;;;30.11;28.62;99308.22;10504317;28;20094;-69
2021/07/04 14:56:20;;;;;;;1.80;1.70;;;;;;;29.53;29.65;99304.59;10504891;28;20495;-69
2021/07/04 15:01:24;;;;;;;2.58;2.00;;;;;;;30.07;30.81;99296.09;10504890;28;20388;-70
2021/07/04 15:06:26;;;;;;;2.88;1.65;;;;;;;30.31;30.20;99297.59;10503845;28;20076;-70
2021/07/04 15:11:29;;;;;;;1.73;1.63;;;;;;;29.50;29.81;99298.72;10502413;28;20047;-70
2021/07/04 15:16:31;;;;;;;2.08;1.88;;;;;;;30.38;30.20;99297.69;10501876;28;20041;-70
2021/07/04 15:21:33;;;;;;;1.85;1.70;;;;;;;30.30;28.89;99284.25;10502440;28;20040;-70
2021/07/04 15:26:35;;;;;;;1.90;1.80;;;;;;;28.87;31.30;99271.16;10502888;28;20049;-70
2021/07/04 15:31:38;;;;;;;1.85;1.75;;;;;;;28.91;31.72;99283.28;10502087;28;20051;-70
2021/07/04 15:36:39;;;;;;;3.47;1.70;;;;;;;28.77;34.05;99270.56;10484220;28;20052;-69
2021/07/04 15:41:42;;;;;;;1.70;1.60;;;;;;;28.67;31.84;99266.25;10514954;22;20401;-67
2021/07/04 15:46:46;;;;;;;1.80;1.70;;;;;;;28.33;32.61;99268.56;10502062;28;20048;-67
2021/07/04 15:51:48;;;;;;;2.10;2.00;;;;;;;27.89;33.39;99263.81;10538881;28;20485;-68
2021/07/04 15:56:50;;;;;;;3.05;2.33;;;;;;;27.55;34.82;99265.00;10525183;28;20079;-68
2021/07/04 16:01:51;;;;;;;2.20;2.10;;;;;;;27.32;35.55;99258.72;10543318;28;20047;-68
2021/07/04 16:06:53;;;;;;;2.47;2.28;;;;;;;27.20;37.36;99260.94;10543078;28;20048;-68
2021/07/04 16:11:54;;;;;;;2.03;1.85;;;;;;;27.28;37.00;99251.97;10525073;28;20097;-68
2021/07/04 16:16:56;;;;;;;2.40;2.10;;;;;;;27.06;37.66;99258.94;10543228;28;20075;-67
2021/07/04 16:21:58;;;;;;;2.60;2.40;;;;;;;27.37;36.44;99254.47;10507744;28;20044;-69
2021/07/04 16:27:00;;;;;;;2.85;2.65;;;;;;;27.58;38.72;99251.16;10542796;28;20062;-68
2021/07/04 16:32:05;;;;;;;2.75;2.53;;;;;;;27.12;41.15;99261.81;10542332;28;20082;-69
2021/07/04 16:37:06;;;;;;;3.03;2.60;;;;;;;26.60;42.30;99264.91;10543181;28;20047;-68
2021/07/04 16:42:08;;;;;;;4.82;2.75;;;;;;;26.54;43.18;99260.22;10542415;28;20036;-69
2021/07/04 16:47:10;;;;;;;2.97;2.78;;;;;;;26.10;43.55;99257.81;10525614;28;20075;-68
2021/07/04 16:52:13;;;;;;;3.50;2.95;;;;;;;26.00;44.38;99259.00;10541188;28;20039;-68
2021/07/04 16:57:15;;;;;;;2.92;2.72;;;;;;;25.92;45.03;99265.22;10541869;28;20059;-67
2021/07/04 17:02:16;;;;;;;3.03;2.83;;;;;;;25.63;46.41;99265.59;10541299;28;20040;-68
2021/07/04 17:07:18;;;;;;;3.03;2.83;;;;;;;25.22;46.80;99261.91;10538814;28;20051;-68
2021/07/04 17:12:19;;;;;;;3.05;2.85;;;;;;;25.26;46.87;99261.44;10539497;28;20409;-69
2021/07/04 17:17:21;;;;;;;3.03;2.80;;;;;;;24.88;48.25;99258.19;10539321;28;20054;-68
2021/07/04 17:22:23;;;;;;;3.28;2.97;;;;;;;24.75;48.10;99265.00;10541383;28;20349;-68
2021/07/04 17:27:25;;;;;;;3.03;2.83;;;;;;;24.62;49.00;99268.09;10540670;28;20052;-68
2021/07/04 17:32:27;;;;;;;3.10;2.90;;;;;;;24.60;49.49;99272.78;10522673;28;20040;-68
2021/07/04 17:37:28;;;;;;;2.78;2.58;;;;;;;24.54;49.95;99284.16;10539960;28;20044;-68
2021/07/04 17:42:30;;;;;;;3.15;2.83;;;;;;;24.32;50.11;99293.53;10540300;28;20454;-68
2021/07/04 17:47:32;;;;;;;3.50;3.30;;;;;;;24.10;51.33;99284.94;10540302;28;20048;-67
2021/07/04 17:52:34;;;;;;;3.47;3.28;;;;;;;24.01;50.98;99287.69;10539474;28;20044;-68
2021/07/04 17:57:36;;;;;;;9.70;3.78;;;;;;;24.02;49.90;99287.53;10539876;28;20123;-67
2021/07/04 18:02:40;;;;;;;4.47;4.07;;;;;;;23.73;51.92;99284.19;10538108;28;20411;-68
2021/07/04 18:07:42;;;;;;;3.53;3.33;;;;;;;23.64;51.83;99288.59;10522407;28;20480;-68
2021/07/04 18:12:45;;;;;;;3.10;2.83;;;;;;;23.77;52.11;99282.91;10540855;28;20036;-67
2021/07/04 18:17:48;;;;;;;3.33;3.13;;;;;;;23.78;51.29;99284.63;10539034;28;20044;-67
2021/07/04 18:22:49;;;;;;;3.88;3.60;;;;;;;23.75;51.05;99288.44;10537928;28;20489;-67
2021/07/04 18:27:51;;;;;;;3.67;3.47;;;;;;;23.41;52.57;99286.31;10521257;28;20449;-67
2021/07/04 18:32:53;;;;;;;3.97;3.70;;;;;;;23.48;53.08;99297.31;10539999;28;20115;-69
2021/07/04 18:37:55;;;;;;;4.22;3.92;;;;;;;23.17;53.60;99294.06;10539368;28;20050;-68
2021/07/04 18:42:56;;;;;;;3.60;3.40;;;;;;;23.10;53.42;99299.16;10538321;28;20044;-69
2021/07/04 18:47:58;;;;;;;5.03;4.70;;;;;;;23.02;53.82;99306.22;10540425;28;20118;-69
2021/07/04 18:53:00;;;;;;;4.47;4.18;;;;;;;22.92;53.83;99307.09;10544769;28;20040;-69
2021/07/04 18:58:02;;;;;;;4.40;4.10;;;;;;;22.89;54.11;99314.59;10546045;28;20106;-69
2021/07/04 19:03:04;;;;;;;4.28;3.97;;;;;;;22.96;54.34;99314.88;10526535;28;20032;-69
2021/07/04 19:08:10;;;;;;;4.63;4.28;;;;;;;23.17;54.12;99313.66;10543888;28;20070;-68
2021/07/04 19:13:13;;;;;;;;;;;;;;;22.89;53.99;99331.53;10544140;28;20044;-68
2021/07/04 19:18:16;;;;;;;4.18;3.88;;;;;;;23.03;53.88;99337.44;10541727;28;19920;-69
2021/07/04 19:23:21;;;;;;;4.20;3.97;;;;;;;23.00;53.81;99337.72;10542271;28;20052;-69
2021/07/04 19:28:26;;;;;;;4.07;3.83;;;;;;;22.92;54.59;99350.00;10543236;28;20358;-70
2021/07/04 19:33:28;;;;;;;4.63;4.28;;;;;;;22.89;54.64;99347.63;10542957;28;20044;-68
2021/07/04 19:38:30;;;;;;;4.03;3.78;;;;;;;22.90;55.27;99351.97;10541739;28;20040;-69
2021/07/04 19:43:32;;;;;;;4.85;4.53;;;;;;;22.67;56.43;99354.09;10505472;28;1080891;-69
2021/07/04 19:48:33;;;;;;;4.70;4.40;;;;;;;22.62;56.03;99348.31;10543748;28;20040;-69
2021/07/04 19:53:35;;;;;;;4.43;4.13;;;;;;;22.80;55.80;99340.41;10543804;28;20109;-69
2021/07/04 19:58:36;;;;;;;4.82;4.53;;;;;;;22.96;56.24;99347.03;10543553;28;20048;-69
2021/07/04 20:08:59;;;;;;;5.03;4.72;;;;;;;23.02;56.26;99350.00;10542893;28;20446;-68
2021/07/04 20:14:01;;;;;;;4.65;4.32;;;;;;;22.95;56.32;99356.91;10524636;28;20043;-68
2021/07/04 20:19:07;;;;;;;5.13;4.82;;;;;;;22.78;56.76;99360.28;10524047;28;20143;-68
2021/07/04 20:24:09;;;;;;;5.45;5.03;;;;;;;22.71;57.56;99361.81;10542537;28;20047;-69
2021/07/04 20:29:10;;;;;;;5.15;4.85;;;;;;;22.52;58.27;99368.03;10541567;28;20070;-69
2021/07/04 20:34:12;;;;;;;5.32;4.93;;;;;;;22.59;58.17;99367.34;10541679;28;20544;-69
2021/07/04 20:39:14;;;;;;;5.07;4.78;;;;;;;22.77;57.56;99372.84;10542547;28;20101;-69
2021/07/04 20:44:16;;;;;;;5.70;5.40;;;;;;;22.68;57.95;99379.06;10541409;28;20391;-69
2021/07/04 20:49:17;;;;;;;6.05;5.47;;;;;;;22.46;58.52;99364.09;10540422;28;20052;-69
2021/07/04 20:54:19;;;;;;;5.22;4.90;;;;;;;22.32;59.35;99369.88;10540608;28;20105;-69
2021/07/04 20:59:20;;;;;;;6.10;5.70;;;;;;;22.30;58.76;99380.72;10540670;28;20054;-69
2021/07/04 21:04:22;;;;;;;5.13;4.80;;;;;;;22.21;58.84;99375.34;10540194;28;20043;-69
2021/07/04 21:09:23;;;;;;;5.40;4.97;;;;;;;22.13;59.45;99376.91;10540088;28;20417;-70
2021/07/04 21:14:25;;;;;;;6.30;5.93;;;;;;;22.27;58.45;99372.13;10539839;28;20101;-69
2021/07/04 21:19:27;;;;;;;6.00;5.63;;;;;;;22.29;58.89;99367.47;10540163;28;20048;-69
2021/07/04 21:24:28;;;;;;;5.75;5.43;;;;;;;22.17;59.72;99378.31;10540146;28;20070;-69
2021/07/04 21:29:30;;;;;;;5.97;5.68;;;;;;;22.44;58.63;99379.47;10540208;28;20093;-69
2021/07/04 21:34:32;;;;;;;6.25;5.68;;;;;;;22.51;59.10;99369.88;10540221;28;20040;-69
2021/07/04 21:39:33;;;;;;;5.85;5.47;;;;;;;22.53;58.87;99370.56;10521660;28;20105;-68
2021/07/04 21:44:35;;;;;;;6.05;5.55;;;;;;;22.36;59.59;99369.47;10508499;22;20117;-71
2021/07/04 21:49:36;;;;;;;5.72;5.43;;;;;;;22.01;60.71;99369.09;10516598;28;20245;-72
2021/07/04 21:54:38;;;;;;;5.97;5.57;;;;;;;21.71;62.08;99364.66;10539313;28;20068;-75
2021/07/04 21:59:40;;;;;;;5.97;5.57;;;;;;;21.61;62.16;99370.81;10539127;28;20050;-75
2021/07/04 22:04:42;;;;;;;5.90;5.60;;;;;;;21.69;61.81;99372.78;10539806;28;20382;-75
2021/07/04 22:09:44;;;;;;;5.40;5.10;;;;;;;21.76;62.72;99376.63;10538984;28;20044;-75
2021/07/04 22:14:45;;;;;;;6.22;5.85;;;;;;;22.18;60.73;99376.50;10539286;28;20039;-75
2021/07/04 22:19:47;;;;;;;5.82;5.38;;;;;;;22.07;60.24;99377.41;10538892;28;20048;-75
2021/07/04 22:24:49;;;;;;;6.95;6.15;;;;;;;21.82;60.76;99375.22;10546015;28;20036;-75
2021/07/04 22:29:51;;;;;;;6.03;5.68;;;;;;;21.62;61.57;99371.66;10547938;28;20386;-75
2021/07/04 22:34:53;;;;;;;6.57;6.07;;;;;;;21.63;61.77;99378.69;10546434;28;20040;-75
2021/07/04 22:39:54;;;;;;;6.57;6.22;;;;;;;21.31;63.21;99378.81;10546092;28;20043;-74
2021/07/04 22:44:56;;;;;;;6.78;6.18;;;;;;;21.28;62.83;99368.38;10546025;28;20048;-72
2021/07/04 22:49:57;;;;;;;6.78;6.38;;;;;;;21.38;62.67;99375.50;10544724;28;20488;-72
2021/07/04 22:54:59;;;;;;;6.03;5.63;;;;;;;21.34;63.27;99378.59;10545636;28;20101;-71
2021/07/04 23:00:02;;;;;;;7.13;6.63;;;;;;;21.45;62.79;99383.00;10545618;28;20539;-71
2021/07/04 23:05:04;;;;;;;7.18;6.68;;;;;;;21.41;62.21;99377.91;10545479;28;20044;-70
2021/07/04 23:10:08;;;;;;;8.30;7.45;;;;;;;21.29;62.81;99373.56;10545806;28;20404;-70
2021/07/04 23:15:10;;;;;;;8.05;7.55;;;;;;;21.62;61.77;99369.00;10544856;28;20097;-70
2021/07/04 23:20:15;;;;;;;8.23;7.72;;;;;;;21.56;61.65;99375.72;10546280;28;20055;-71
2021/07/04 23:25:18;;;;;;;8.10;7.50;;;;;;;21.31;62.81;99381.47;10545593;28;20051;-72
2021/07/04 23:30:22;;;;;;;7.70;7.20;;;;;;;21.11;64.05;99375.16;10545271;28;20043;-72
2021/07/04 23:35:24;;;;;;;8.23;7.72;;;;;;;20.91;64.47;99377.72;10544272;28;20048;-72
2021/07/04 23:40:27;;;;;;;7.75;7.25;;;;;;;20.95;64.59;99375.66;10545313;28;20508;-72
2021/07/04 23:45:33;;;;;;;8.02;7.43;;;;;;;20.98;64.02;99377.19;10544299;28;20040;-73